Time;durP1;ratioP1;P1;durP2;ratioP2;P2;SDS_P1;SDS_P2;PMS_P1;PMS_P2;Temp;Humidity;BMP_temperature;BMP_pressure;BME280_temperature;BME280_humidity;BME280_pressure;Samples;Min_cycle;Max_cycle;Signal;HPM_P1;HPM_P2
2022/04/10 00:00:28;;;;;;;29.15;20.38;;;;;;;;;;4940260;29;20493;-88
2022/04/10 00:02:54;;;;;;;30.17;19.20;;;;;;;;;;4956202;29;20042;-90
2022/04/10 00:05:19;;;;;;;26.60;17.45;;;;;;;;;;4940336;29;20031;-90
2022/04/10 00:07:44;;;;;;;25.13;16.65;;;;;;;;;;4956527;29;20035;-89
2022/04/10 00:10:10;;;;;;;27.20;17.15;;;;;;;;;;4936376;29;20027;-91
2022/04/10 00:12:35;;;;;;;30.65;18.40;;;;;;;;;;4954202;28;20058;-89
2022/04/10 00:15:02;;;;;;;29.67;17.30;;;;;;;;;;4942853;28;20039;-88
2022/04/10 00:17:28;;;;;;;37.42;23.15;;;;;;;;;;4975415;28;20058;-90
2022/04/10 00:19:53;;;;;;;36.92;21.58;;;;;;;;;;4943203;28;20101;-90
2022/04/10 00:22:19;;;;;;;25.95;17.10;;;;;;;;;;4975261;28;20054;-89
2022/04/10 00:24:45;;;;;;;28.52;18.52;;;;;;;;;;4943007;28;20089;-90
2022/04/10 00:27:13;;;;;;;98.90;64.53;;;;;;;;;;4958985;28;20117;-90
2022/04/10 00:29:39;;;;;;;33.42;18.35;;;;;;;;;;4942958;28;20023;-90
2022/04/10 00:32:05;;;;;;;27.75;16.80;;;;;;;;;;4942439;28;20031;-89
2022/04/10 00:34:30;;;;;;;27.98;17.02;;;;;;;;;;4942363;28;20019;-90
2022/04/10 00:36:56;;;;;;;27.38;17.50;;;;;;;;;;4974858;28;20023;-89
2022/04/10 00:39:21;;;;;;;27.08;17.10;;;;;;;;;;4958639;28;20018;-91
2022/04/10 00:41:46;;;;;;;24.50;16.27;;;;;;;;;;4942388;28;20500;-90
2022/04/10 00:44:12;;;;;;;28.70;14.45;;;;;;;;;;4942411;28;20030;-89
2022/04/10 00:46:38;;;;;;;24.33;14.93;;;;;;;;;;4958308;28;20038;-92
2022/04/10 00:49:04;;;;;;;24.80;15.82;;;;;;;;;;4941585;28;20031;-90
2022/04/10 00:51:43;;;;;;;23.02;15.43;;;;;;;;;;4942715;28;20030;-89
2022/04/10 00:54:16;;;;;;;26.35;15.73;;;;;;;;;;4958655;28;20030;-90
2022/04/10 00:56:42;;;;;;;29.85;15.85;;;;;;;;;;4974829;28;20022;-89
2022/04/10 00:59:07;;;;;;;23.50;15.07;;;;;;;;;;4942047;28;20454;-91
2022/04/10 01:01:34;;;;;;;23.70;15.65;;;;;;;;;;4942256;28;20034;-89
2022/04/10 01:03:59;;;;;;;24.65;15.55;;;;;;;;;;4941346;28;20035;-89
2022/04/10 01:06:26;;;;;;;24.25;15.70;;;;;;;;;;4973737;28;20755;-89
2022/04/10 01:08:51;;;;;;;25.70;15.35;;;;;;;;;;4941745;28;20029;-89
2022/04/10 01:11:16;;;;;;;26.95;15.07;;;;;;;;;;4974474;28;20129;-90
2022/04/10 01:13:43;;;;;;;22.38;14.48;;;;;;;;;;4942064;28;20446;-92
2022/04/10 01:16:09;;;;;;;22.30;14.23;;;;;;;;;;4942370;28;20067;-91
2022/04/10 01:18:40;;;;;;;21.88;14.05;;;;;;;;;;4941913;28;20046;-93
2022/04/10 01:21:11;;;;;;;23.73;14.40;;;;;;;;;;4942580;28;20085;-92
2022/04/10 01:23:43;;;;;;;20.63;14.27;;;;;;;;;;4958344;28;20042;-93
2022/04/10 01:26:11;;;;;;;;;;;;;;;;;;4942397;28;20038;-92
2022/04/10 01:28:40;;;;;;;22.98;14.73;;;;;;;;;;4974512;28;19941;-93
2022/04/10 01:31:09;;;;;;;26.63;15.68;;;;;;;;;;4942685;28;20037;-91
2022/04/10 01:33:36;;;;;;;31.20;18.15;;;;;;;;;;4942547;28;20022;-91
2022/04/10 01:36:07;;;;;;;27.10;15.88;;;;;;;;;;4942042;28;20027;-91
2022/04/10 01:38:41;;;;;;;25.90;15.63;;;;;;;;;;4942532;28;20047;-92
2022/04/10 01:41:10;;;;;;;22.05;13.50;;;;;;;;;;4941618;28;20066;-91
2022/04/10 01:43:45;;;;;;;21.92;11.95;;;;;;;;;;4941354;28;20031;-91
2022/04/10 01:46:14;;;;;;;15.70;9.13;;;;;;;;;;4941831;28;20027;-91
2022/04/10 01:48:40;;;;;;;14.98;9.18;;;;;;;;;;4941492;28;20375;-90
2022/04/10 01:51:07;;;;;;;16.77;10.70;;;;;;;;;;4973924;28;20122;-92
2022/04/10 01:53:34;;;;;;;15.95;10.40;;;;;;;;;;4941577;28;20102;-90
2022/04/10 01:56:07;;;;;;;17.13;12.15;;;;;;;;;;4942030;28;20105;-90
2022/04/10 01:58:39;;;;;;;18.88;11.73;;;;;;;;;;4941198;28;20030;-92
2022/04/10 02:01:05;;;;;;;23.95;13.07;;;;;;;;;;4973373;28;20105;-91
2022/04/10 02:03:30;;;;;;;22.63;13.35;;;;;;;;;;4940847;28;20478;-91
2022/04/10 02:05:56;;;;;;;18.40;12.18;;;;;;;;;;4957091;28;20061;-91
2022/04/10 02:08:22;;;;;;;21.20;13.48;;;;;;;;;;4941383;28;20057;-91
2022/04/10 02:10:48;;;;;;;18.98;12.68;;;;;;;;;;4941568;28;20039;-90
2022/04/10 02:13:17;;;;;;;19.95;12.55;;;;;;;;;;4956781;28;20057;-90
2022/04/10 02:15:42;;;;;;;20.63;12.98;;;;;;;;;;4940533;28;20030;-91
2022/04/10 02:18:08;;;;;;;20.13;13.30;;;;;;;;;;4940576;28;20824;-90
2022/04/10 02:20:33;;;;;;;19.08;11.88;;;;;;;;;;4940810;28;20167;-89
2022/04/10 02:22:58;;;;;;;18.67;12.10;;;;;;;;;;4940631;28;20034;-90
2022/04/10 02:25:24;;;;;;;19.35;12.73;;;;;;;;;;4940752;28;20034;-89
2022/04/10 02:27:49;;;;;;;18.58;12.82;;;;;;;;;;4940653;28;20050;-90
2022/04/10 02:30:16;;;;;;;23.80;13.30;;;;;;;;;;4940447;28;20134;-89
2022/04/10 02:32:42;;;;;;;23.15;13.13;;;;;;;;;;4940763;28;20019;-90
2022/04/10 02:35:08;;;;;;;25.10;14.80;;;;;;;;;;4972976;28;20124;-90
2022/04/10 02:37:35;;;;;;;23.60;13.40;;;;;;;;;;4941351;28;20019;-90
2022/04/10 02:40:00;;;;;;;21.40;13.30;;;;;;;;;;4940975;28;20524;-89
2022/04/10 02:42:27;;;;;;;21.08;13.70;;;;;;;;;;4940674;28;20030;-89
2022/04/10 02:44:54;;;;;;;21.65;13.15;;;;;;;;;;4973521;28;20035;-90
2022/04/10 02:47:19;;;;;;;20.42;13.07;;;;;;;;;;4956089;28;20054;-89
2022/04/10 02:49:45;;;;;;;20.60;12.52;;;;;;;;;;4940841;28;20434;-89
2022/04/10 02:52:11;;;;;;;22.02;12.73;;;;;;;;;;4940697;28;20018;-92
2022/04/10 02:54:37;;;;;;;18.65;12.43;;;;;;;;;;4941454;28;20034;-90
2022/04/10 02:57:02;;;;;;;20.38;11.90;;;;;;;;;;4941137;28;20038;-91
2022/04/10 02:59:28;;;;;;;17.08;11.43;;;;;;;;;;4969151;28;20035;-90
2022/04/10 03:01:53;;;;;;;22.02;12.50;;;;;;;;;;4936710;28;20034;-90
2022/04/10 03:04:19;;;;;;;20.02;11.63;;;;;;;;;;4971108;28;20520;-90
2022/04/10 03:06:45;;;;;;;20.05;12.18;;;;;;;;;;4939519;28;20165;-89
2022/04/10 03:09:10;;;;;;;19.77;12.20;;;;;;;;;;4940445;28;20553;-89
2022/04/10 03:11:36;;;;;;;17.30;11.82;;;;;;;;;;4940315;28;20034;-90
2022/04/10 03:14:03;;;;;;;18.92;11.93;;;;;;;;;;4943347;28;20054;-92
2022/04/10 03:16:28;;;;;;;20.83;11.65;;;;;;;;;;4944733;28;20033;-91
2022/04/10 03:18:54;;;;;;;17.05;11.40;;;;;;;;;;4976252;28;20540;-92
2022/04/10 03:21:20;;;;;;;22.33;14.05;;;;;;;;;;4944420;28;20011;-90
2022/04/10 03:23:48;;;;;;;29.77;17.55;;;;;;;;;;4976679;28;20474;-91
2022/04/10 03:26:14;;;;;;;30.90;18.88;;;;;;;;;;4944613;28;20042;-91
2022/04/10 03:28:40;;;;;;;33.90;19.83;;;;;;;;;;4944340;28;20073;-91
2022/04/10 03:31:05;;;;;;;31.83;19.67;;;;;;;;;;4943822;28;20030;-91
2022/04/10 03:33:33;;;;;;;27.83;17.08;;;;;;;;;;4944229;28;20041;-91
2022/04/10 03:35:58;;;;;;;25.73;16.42;;;;;;;;;;4943707;28;20394;-90
2022/04/10 03:38:24;;;;;;;28.33;17.20;;;;;;;;;;4944300;28;20031;-91
2022/04/10 03:40:50;;;;;;;28.05;17.52;;;;;;;;;;4943977;28;20025;-90
2022/04/10 03:43:16;;;;;;;25.77;16.98;;;;;;;;;;4975846;28;20034;-89
2022/04/10 03:45:44;;;;;;;26.90;17.55;;;;;;;;;;4943831;28;20019;-90
2022/04/10 03:48:09;;;;;;;29.48;17.50;;;;;;;;;;4943792;28;20039;-91
2022/04/10 03:50:36;;;;;;;29.35;17.33;;;;;;;;;;4944238;28;20179;-91
2022/04/10 03:53:03;;;;;;;32.17;17.83;;;;;;;;;;4960086;28;20042;-91
2022/04/10 03:55:29;;;;;;;36.47;19.67;;;;;;;;;;4944014;28;20030;-91
2022/04/10 03:58:00;;;;;;;37.55;19.92;;;;;;;;;;4944527;28;20031;-91
2022/04/10 04:00:25;;;;;;;35.22;20.17;;;;;;;;;;4943542;28;20030;-90
2022/04/10 04:02:57;;;;;;;31.55;18.73;;;;;;;;;;4944711;28;20045;-90
2022/04/10 04:05:26;;;;;;;32.97;18.05;;;;;;;;;;4943792;28;20090;-90
2022/04/10 04:07:52;;;;;;;26.52;17.83;;;;;;;;;;4943553;28;20022;-92
2022/04/10 04:10:18;;;;;;;30.02;18.85;;;;;;;;;;4943385;28;20042;-91
2022/04/10 04:12:43;;;;;;;29.83;17.17;;;;;;;;;;4943728;28;20121;-90
2022/04/10 04:15:11;;;;;;;28.38;16.58;;;;;;;;;;4975844;28;20041;-91
2022/04/10 04:17:37;;;;;;;25.65;16.10;;;;;;;;;;4943464;28;20030;-91
2022/04/10 04:20:03;;;;;;;27.00;16.48;;;;;;;;;;4943582;28;20074;-90
2022/04/10 04:22:30;;;;;;;24.88;15.23;;;;;;;;;;4943444;28;20023;-90
2022/04/10 04:24:55;;;;;;;23.05;15.82;;;;;;;;;;4941580;28;20037;-92
2022/04/10 04:27:21;;;;;;;26.52;15.90;;;;;;;;;;4943209;28;20045;-91
2022/04/10 04:29:48;;;;;;;27.40;16.55;;;;;;;;;;4943679;28;20049;-90
2022/04/10 04:32:14;;;;;;;26.60;17.25;;;;;;;;;;4943271;28;20549;-91
2022/04/10 04:34:39;;;;;;;27.20;16.92;;;;;;;;;;4974831;28;20027;-89
2022/04/10 04:37:07;;;;;;;28.02;16.25;;;;;;;;;;4942785;28;20011;-91
2022/04/10 04:40:16;;;;;;;;;;;;;;;;;;;;;
2022/04/10 04:43:09;;;;;;;24.95;15.80;;;;;;;;;;4972011;28;20039;-90
2022/04/10 04:45:59;;;;;;;27.88;17.17;;;;;;;;;;4942716;28;20045;-91
2022/04/10 04:51:46;;;;;;;;;;;;;;;;;;4973903;28;20133;-92
2022/04/10 04:54:57;;;;;;;74.00;47.70;;;;;;;;;;4974119;28;19949;-92
2022/04/10 04:57:04;;;;;;;79.75;45.70;;;;;;;;;;4950036;28;20043;-94
2022/04/10 04:59:35;;;;;;;100.78;72.78;;;;;;;;;;4943002;28;20386;-90
2022/04/10 05:02:17;;;;;;;49.67;32.08;;;;;;;;;;4957779;28;20504;-93
2022/04/10 05:05:11;;;;;;;29.42;20.35;;;;;;;;;;4974531;28;20409;-92
2022/04/10 05:09:20;;;;;;;;;;;;;;;;;;;;;
2022/04/10 05:16:06;;;;;;;30.92;19.40;;;;;;;;;;4873410;29;20053;-91
2022/04/10 05:18:36;;;;;;;36.10;22.10;;;;;;;;;;4861797;29;20141;-91
2022/04/10 05:21:02;;;;;;;31.83;21.02;;;;;;;;;;4885075;29;20554;-90
2022/04/10 05:23:28;;;;;;;35.22;21.98;;;;;;;;;;4936004;29;20035;-88
2022/04/10 05:26:19;;;;;;;385.50;216.35;;;;;;;;;;4922683;29;20471;-90
2022/04/10 05:28:50;;;;;;;62.70;46.65;;;;;;;;;;4935821;29;20055;-91
2022/04/10 05:31:24;;;;;;;44.75;29.35;;;;;;;;;;4920070;29;20027;-90
2022/04/10 05:33:53;;;;;;;35.03;23.17;;;;;;;;;;4920602;29;20047;-90
2022/04/10 05:36:42;;;;;;;37.25;24.23;;;;;;;;;;4919981;29;20031;-93
2022/04/10 05:43:06;;;;;;;46.20;31.13;;;;;;;;;;4878556;29;20041;-87
2022/04/10 05:45:32;;;;;;;39.45;27.55;;;;;;;;;;4913263;29;20043;-87
2022/04/10 05:47:59;;;;;;;41.03;30.45;;;;;;;;;;4919357;29;20111;-90
2022/04/10 05:50:31;;;;;;;;;;;;;;;;;;4935511;29;20130;-87
2022/04/10 05:52:57;;;;;;;26.42;17.92;;;;;;;;;;4948054;28;19917;-88
2022/04/10 05:55:28;;;;;;;24.55;17.23;;;;;;;;;;4915374;29;20044;-90
2022/04/10 05:57:56;;;;;;;30.27;18.27;;;;;;;;;;4932914;29;20046;-87
2022/04/10 06:00:23;;;;;;;23.02;16.15;;;;;;;;;;4918066;29;20067;-90
2022/04/10 06:03:01;;;;;;;30.15;16.85;;;;;;;;;;4933778;29;20463;-86
2022/04/10 06:05:26;;;;;;;24.15;15.90;;;;;;;;;;4933982;29;20032;-87
2022/04/10 06:07:59;;;;;;;25.70;16.75;;;;;;;;;;4918759;29;20090;-90
2022/04/10 06:10:26;;;;;;;27.60;17.92;;;;;;;;;;4933204;29;20551;-88
2022/04/10 06:12:51;;;;;;;32.55;21.63;;;;;;;;;;4921360;28;20115;-86
2022/04/10 06:15:20;;;;;;;48.20;27.73;;;;;;;;;;4939561;28;20027;-88
2022/04/10 06:17:47;;;;;;;;;;;;;;;;;;4940326;28;20038;-86
2022/04/10 06:20:14;;;;;;;54.80;31.88;;;;;;;;;;4956224;28;19918;-86
2022/04/10 06:22:41;;;;;;;58.38;32.25;;;;;;;;;;4940392;28;20030;-86
2022/04/10 06:25:08;;;;;;;55.85;32.28;;;;;;;;;;4955972;28;20811;-87
2022/04/10 06:27:33;;;;;;;61.13;34.88;;;;;;;;;;4940034;28;20014;-86
2022/04/10 06:29:59;;;;;;;76.45;39.35;;;;;;;;;;4971925;28;20116;-88
2022/04/10 06:32:25;;;;;;;100.10;53.53;;;;;;;;;;4955731;28;20058;-89
2022/04/10 06:34:53;;;;;;;53.42;28.83;;;;;;;;;;4956045;28;20034;-88
2022/04/10 06:37:24;;;;;;;14.55;8.43;;;;;;;;;;4940346;28;20019;-88
2022/04/10 06:39:51;;;;;;;5.97;4.90;;;;;;;;;;4955631;28;20039;-88
2022/04/10 06:42:20;;;;;;;5.65;4.90;;;;;;;;;;4940785;28;20485;-86
2022/04/10 06:45:06;;;;;;;4.97;4.30;;;;;;;;;;4956019;28;20474;-85
2022/04/10 06:47:52;;;;;;;4.68;4.32;;;;;;;;;;4941299;28;20027;-85
2022/04/10 06:50:17;;;;;;;4.97;4.47;;;;;;;;;;4956077;28;20035;-87
2022/04/10 06:52:44;;;;;;;4.95;4.45;;;;;;;;;;4940107;28;20023;-88
2022/04/10 06:55:11;;;;;;;4.25;3.83;;;;;;;;;;4972323;28;20043;-85
2022/04/10 06:57:37;;;;;;;5.68;4.18;;;;;;;;;;4956451;28;20026;-85
2022/04/10 07:00:03;;;;;;;4.93;4.47;;;;;;;;;;4956221;28;20035;-86
2022/04/10 07:02:31;;;;;;;6.97;4.70;;;;;;;;;;4955957;28;20026;-88
2022/04/10 07:04:57;;;;;;;5.57;4.93;;;;;;;;;;4956167;28;20478;-89
2022/04/10 07:07:24;;;;;;;5.57;5.07;;;;;;;;;;4940705;28;20045;-87
2022/04/10 07:09:50;;;;;;;5.60;4.78;;;;;;;;;;4940614;28;20493;-89
2022/04/10 07:12:21;;;;;;;4.50;3.53;;;;;;;;;;4940737;28;20015;-91
2022/04/10 07:14:50;;;;;;;4.20;3.90;;;;;;;;;;4937839;29;20615;-88
2022/04/10 07:17:16;;;;;;;4.60;4.20;;;;;;;;;;4952671;29;20031;-90
2022/04/10 07:19:45;;;;;;;3.83;3.50;;;;;;;;;;4937324;29;20023;-87
2022/04/10 07:24:55;;;;;;;5.70;4.07;;;;;;;;;;4953493;29;20067;-88
2022/04/10 07:27:21;;;;;;;3.63;3.33;;;;;;;;;;4937799;29;20028;-88
2022/04/10 07:29:58;;;;;;;3.55;3.25;;;;;;;;;;4938672;29;20110;-87
2022/04/10 07:32:29;;;;;;;3.65;2.80;;;;;;;;;;4937529;29;20039;-87
2022/04/10 07:35:04;;;;;;;5.25;3.40;;;;;;;;;;4953105;29;20162;-88
2022/04/10 07:37:37;;;;;;;5.50;3.53;;;;;;;;;;4938192;29;20046;-87
2022/04/10 07:40:04;;;;;;;3.70;3.20;;;;;;;;;;4936661;29;20027;-90
2022/04/10 07:42:31;;;;;;;4.18;3.58;;;;;;;;;;4937229;29;20023;-92
2022/04/10 07:44:59;;;;;;;4.57;2.83;;;;;;;;;;4953503;29;20028;-89
2022/04/10 07:47:33;;;;;;;3.63;3.25;;;;;;;;;;4938061;29;20027;-90
2022/04/10 07:49:58;;;;;;;2.78;2.58;;;;;;;;;;4936656;29;20042;-87
2022/04/10 07:52:25;;;;;;;3.45;2.88;;;;;;;;;;4952711;29;20046;-89
2022/04/10 07:55:05;;;;;;;7.60;4.45;;;;;;;;;;4938556;29;20111;-90
2022/04/10 07:57:34;;;;;;;3.28;2.97;;;;;;;;;;4937091;29;20466;-86
2022/04/10 08:00:00;;;;;;;2.85;2.65;;;;;;;;;;4938763;29;20026;-88
2022/04/10 08:02:38;;;;;;;2.92;2.72;;;;;;;;;;4955558;29;20397;-90
2022/04/10 08:05:07;;;;;;;4.45;2.83;;;;;;;;;;4940033;29;20094;-88
2022/04/10 08:07:53;;;;;;;4.40;3.10;;;;;;;;;;4943013;29;20054;-88
2022/04/10 08:10:19;;;;;;;3.08;2.70;;;;;;;;;;4939867;29;20090;-90
2022/04/10 08:12:44;;;;;;;2.90;2.70;;;;;;;;;;4940609;28;20426;-89
2022/04/10 08:15:10;;;;;;;3.83;2.88;;;;;;;;;;4942640;28;20037;-89
2022/04/10 08:17:36;;;;;;;2.78;1.88;;;;;;;;;;4942193;28;20085;-86
2022/04/10 08:20:04;;;;;;;6.28;2.60;;;;;;;;;;4943481;28;20034;-86
2022/04/10 08:22:30;;;;;;;6.00;3.10;;;;;;;;;;4943639;28;20018;-86
2022/04/10 08:24:59;;;;;;;4.20;2.70;;;;;;;;;;4960172;28;20114;-87
2022/04/10 08:27:26;;;;;;;13.20;6.73;;;;;;;;;;4943650;28;20019;-88
2022/04/10 08:29:51;;;;;;;2.65;2.45;;;;;;;;;;4943818;28;20054;-87
2022/04/10 08:32:18;;;;;;;2.55;1.85;;;;;;;;;;4944021;28;20500;-87
2022/04/10 08:34:44;;;;;;;3.50;1.70;;;;;;;;;;4959622;28;20023;-87
2022/04/10 08:37:09;;;;;;;4.15;2.58;;;;;;;;;;4943894;28;20090;-87
2022/04/10 08:39:37;;;;;;;2.50;1.88;;;;;;;;;;4943926;28;20106;-87
2022/04/10 08:42:04;;;;;;;3.00;1.55;;;;;;;;;;4943226;28;20122;-86
2022/04/10 08:44:29;;;;;;;3.58;1.95;;;;;;;;;;4959827;28;20035;-86
2022/04/10 08:46:55;;;;;;;2.33;1.80;;;;;;;;;;4943382;28;20019;-87
2022/04/10 08:49:24;;;;;;;1.98;1.70;;;;;;;;;;4959783;28;20074;-87
2022/04/10 08:51:50;;;;;;;3.03;2.05;;;;;;;;;;4943963;28;20039;-88
2022/04/10 08:54:15;;;;;;;3.38;1.80;;;;;;;;;;4959676;28;20110;-87
2022/04/10 08:56:41;;;;;;;2.38;1.63;;;;;;;;;;4943249;28;20051;-88
2022/04/10 08:59:06;;;;;;;1.38;1.20;;;;;;;;;;4943330;28;20105;-88
2022/04/10 09:01:32;;;;;;;1.95;1.23;;;;;;;;;;4943117;28;20023;-87
2022/04/10 09:03:58;;;;;;;1.73;1.20;;;;;;;;;;4943427;28;20050;-87
2022/04/10 09:06:23;;;;;;;2.20;1.33;;;;;;;;;;4942991;28;20019;-87
2022/04/10 09:08:49;;;;;;;2.20;1.42;;;;;;;;;;4943428;28;20211;-87
2022/04/10 09:11:14;;;;;;;3.42;1.50;;;;;;;;;;4942674;28;20465;-87
2022/04/10 09:13:40;;;;;;;1.30;1.15;;;;;;;;;;4939746;29;20055;-87
2022/04/10 09:16:07;;;;;;;1.40;1.30;;;;;;;;;;4955860;29;20031;-88
2022/04/10 09:18:54;;;;;;;1.50;1.20;;;;;;;;;;4939959;29;20023;-87
2022/04/10 09:21:24;;;;;;;1.73;1.00;;;;;;;;;;4956077;29;20383;-88
2022/04/10 09:23:54;;;;;;;2.78;1.10;;;;;;;;;;4940013;29;20102;-87
2022/04/10 09:26:19;;;;;;;2.83;1.05;;;;;;;;;;4939977;29;20406;-87
2022/04/10 09:28:46;;;;;;;1.20;0.88;;;;;;;;;;4939664;29;20035;-88
2022/04/10 09:31:25;;;;;;;1.83;1.13;;;;;;;;;;4955674;29;20035;-86
2022/04/10 09:33:52;;;;;;;1.90;1.10;;;;;;;;;;4940021;29;20106;-87
2022/04/10 09:36:47;;;;;;;1.42;1.27;;;;;;;;;;4939447;29;20031;-87
2022/04/10 09:39:12;;;;;;;2.58;1.02;;;;;;;;;;4927180;29;20035;-88
2022/04/10 09:41:39;;;;;;;1.83;1.10;;;;;;;;;;4939494;29;20019;-87
2022/04/10 09:44:20;;;;;;;2.05;1.20;;;;;;;;;;4939540;29;20034;-87
2022/04/10 09:46:59;;;;;;;3.50;1.20;;;;;;;;;;4939401;29;20027;-87
2022/04/10 09:49:29;;;;;;;1.73;0.95;;;;;;;;;;4939519;29;20114;-87
2022/04/10 09:51:58;;;;;;;2.15;1.27;;;;;;;;;;4939310;29;20402;-88
2022/04/10 09:54:24;;;;;;;1.42;0.95;;;;;;;;;;4939421;29;20023;-87
2022/04/10 09:56:49;;;;;;;1.73;1.25;;;;;;;;;;4939116;29;20042;-87
2022/04/10 09:59:17;;;;;;;2.90;0.98;;;;;;;;;;4955414;29;20438;-88
2022/04/10 10:01:43;;;;;;;1.35;1.10;;;;;;;;;;4956271;29;20038;-87
2022/04/10 10:04:08;;;;;;;2.00;1.40;;;;;;;;;;4938545;29;20011;-87
2022/04/10 10:06:36;;;;;;;1.83;1.30;;;;;;;;;;4938773;29;20470;-88
2022/04/10 10:09:01;;;;;;;2.08;1.00;;;;;;;;;;4938957;29;20030;-88
2022/04/10 10:11:27;;;;;;;3.50;1.08;;;;;;;;;;4939091;29;20023;-86
2022/04/10 10:13:52;;;;;;;2.92;1.40;;;;;;;;;;4938839;29;20466;-88
2022/04/10 10:16:18;;;;;;;2.78;1.80;;;;;;;;;;4954893;29;20027;-88
2022/04/10 10:18:44;;;;;;;2.03;1.65;;;;;;;;;;4939033;29;20106;-87
2022/04/10 10:21:11;;;;;;;406.67;181.75;;;;;;;;;;4938682;28;20031;-87
2022/04/10 10:23:38;;;;;;;373.23;162.75;;;;;;;;;;4937920;29;20438;-87
2022/04/10 10:26:04;;;;;;;149.45;61.85;;;;;;;;;;4938525;29;20038;-88
2022/04/10 10:28:43;;;;;;;98.28;45.20;;;;;;;;;;4954835;29;20031;-88
2022/04/10 10:31:14;;;;;;;5.22;3.13;;;;;;;;;;4954687;29;20028;-88
2022/04/10 10:33:47;;;;;;;5.03;3.42;;;;;;;;;;4954539;29;20058;-88
2022/04/10 10:36:23;;;;;;;3.42;1.98;;;;;;;;;;4939063;29;20028;-87
2022/04/10 10:38:53;;;;;;;2.08;1.85;;;;;;;;;;4938974;29;20039;-87
2022/04/10 10:41:18;;;;;;;3.05;1.80;;;;;;;;;;4938484;29;20075;-90
2022/04/10 10:43:55;;;;;;;2.30;1.48;;;;;;;;;;4954676;29;20455;-87
2022/04/10 10:46:28;;;;;;;2.85;1.52;;;;;;;;;;4938535;29;20031;-87
2022/04/10 10:49:14;;;;;;;1.65;1.42;;;;;;;;;;4938296;29;20034;-87
2022/04/10 10:51:44;;;;;;;1.42;0.90;;;;;;;;;;4938065;29;20515;-86
2022/04/10 10:54:12;;;;;;;14.82;12.82;;;;;;;;;;4938624;29;20037;-87
2022/04/10 10:56:39;;;;;;;3.03;2.63;;;;;;;;;;4938272;29;20027;-87
2022/04/10 10:59:23;;;;;;;2.03;1.08;;;;;;;;;;4938506;29;20024;-87
2022/04/10 11:01:52;;;;;;;1.20;1.10;;;;;;;;;;4938203;29;20479;-86
2022/04/10 11:04:19;;;;;;;1.98;1.20;;;;;;;;;;4938117;29;20074;-87
2022/04/10 11:06:47;;;;;;;3.47;1.88;;;;;;;;;;4954428;29;20024;-87
2022/04/10 11:09:21;;;;;;;2.92;1.73;;;;;;;;;;4938490;29;20379;-88
2022/04/10 11:11:48;;;;;;;5.53;2.35;;;;;;;;;;4938203;29;20442;-87
2022/04/10 11:14:33;;;;;;;2.15;1.95;;;;;;;;;;4938230;29;20562;-87
2022/04/10 11:17:08;;;;;;;1.63;1.48;;;;;;;;;;4938269;29;20071;-87
2022/04/10 11:19:37;;;;;;;4.32;1.73;;;;;;;;;;4938380;29;20035;-87
2022/04/10 11:22:04;;;;;;;2.83;1.80;;;;;;;;;;4938167;29;20474;-87
2022/04/10 11:24:30;;;;;;;2.92;1.80;;;;;;;;;;4938116;29;20023;-87
2022/04/10 11:26:55;;;;;;;3.83;1.75;;;;;;;;;;4938137;29;20070;-86
2022/04/10 11:29:21;;;;;;;9.60;3.95;;;;;;;;;;4938011;29;20058;-88
2022/04/10 11:31:51;;;;;;;3.92;2.10;;;;;;;;;;4938499;29;20374;-87
2022/04/10 11:34:21;;;;;;;3.90;2.08;;;;;;;;;;4956029;28;20043;-87
2022/04/10 11:36:52;;;;;;;2.75;1.33;;;;;;;;;;4941530;29;20478;-87
2022/04/10 11:39:25;;;;;;;2.58;1.88;;;;;;;;;;4941525;29;20081;-87
2022/04/10 11:41:52;;;;;;;3.00;1.75;;;;;;;;;;4941684;29;20062;-86
2022/04/10 11:44:18;;;;;;;3.03;1.67;;;;;;;;;;4941528;29;20371;-87
2022/04/10 11:46:44;;;;;;;2.75;1.75;;;;;;;;;;4941553;29;20023;-86
2022/04/10 11:49:10;;;;;;;3.55;1.92;;;;;;;;;;4957422;29;20027;-87
2022/04/10 11:51:51;;;;;;;2.30;1.48;;;;;;;;;;4957241;29;20031;-86
2022/04/10 11:54:26;;;;;;;2.65;1.75;;;;;;;;;;4941484;29;20042;-87
2022/04/10 11:56:52;;;;;;;5.00;2.45;;;;;;;;;;4941063;29;20059;-86
2022/04/10 11:59:18;;;;;;;3.33;1.65;;;;;;;;;;4941333;29;20031;-87
2022/04/10 12:01:44;;;;;;;1.88;1.15;;;;;;;;;;4941171;29;20093;-88
2022/04/10 12:04:09;;;;;;;2.05;1.60;;;;;;;;;;4940926;29;20467;-86
2022/04/10 12:06:34;;;;;;;1.58;1.27;;;;;;;;;;4941056;29;20479;-87
2022/04/10 12:09:00;;;;;;;2.63;1.30;;;;;;;;;;4940791;29;20054;-87
2022/04/10 12:11:25;;;;;;;3.15;1.52;;;;;;;;;;4941000;29;20023;-87
2022/04/10 12:13:51;;;;;;;1.85;1.63;;;;;;;;;;4956573;29;20079;-87
2022/04/10 12:16:16;;;;;;;2.33;1.42;;;;;;;;;;4940932;29;20023;-86
2022/04/10 12:18:49;;;;;;;1.70;1.30;;;;;;;;;;4940669;29;20114;-87
2022/04/10 12:21:14;;;;;;;1.95;1.60;;;;;;;;;;4940769;29;20122;-87
2022/04/10 12:23:40;;;;;;;3.40;1.80;;;;;;;;;;4940238;29;20110;-87
2022/04/10 12:26:05;;;;;;;2.00;1.52;;;;;;;;;;4940560;29;20178;-87
2022/04/10 12:28:31;;;;;;;1.65;1.50;;;;;;;;;;4956823;29;20489;-87
2022/04/10 12:31:01;;;;;;;1.83;1.42;;;;;;;;;;4940604;29;20118;-87
2022/04/10 12:33:26;;;;;;;1.77;1.45;;;;;;;;;;4938930;29;20513;-87
2022/04/10 12:35:52;;;;;;;1.85;1.63;;;;;;;;;;4956126;29;20032;-87
2022/04/10 12:38:17;;;;;;;2.28;1.35;;;;;;;;;;4939994;29;20023;-87
2022/04/10 12:40:43;;;;;;;2.42;1.52;;;;;;;;;;4940146;29;20027;-87
2022/04/10 12:43:09;;;;;;;2.35;1.88;;;;;;;;;;4940313;29;20019;-87
2022/04/10 12:45:35;;;;;;;2.42;1.70;;;;;;;;;;4955420;28;20394;-87
2022/04/10 12:48:01;;;;;;;3.78;2.40;;;;;;;;;;4940453;29;20110;-87
2022/04/10 12:50:28;;;;;;;4.40;2.70;;;;;;;;;;4940478;29;20139;-87
2022/04/10 12:52:55;;;;;;;2.53;2.20;;;;;;;;;;4940217;29;20024;-86
2022/04/10 12:55:29;;;;;;;1.67;1.45;;;;;;;;;;4956413;29;20074;-87
2022/04/10 12:58:04;;;;;;;2.85;1.70;;;;;;;;;;4940578;29;20030;-88
2022/04/10 13:00:46;;;;;;;1.80;1.50;;;;;;;;;;4940947;29;20031;-90
2022/04/10 13:03:18;;;;;;;2.20;1.70;;;;;;;;;;4941203;29;20043;-90
2022/04/10 13:05:57;;;;;;;137.32;66.97;;;;;;;;;;4941261;29;20102;-89
2022/04/10 13:08:24;;;;;;;19.90;10.95;;;;;;;;;;4956798;29;20066;-90
2022/04/10 13:10:50;;;;;;;15.35;8.80;;;;;;;;;;4956750;29;20079;-89
2022/04/10 13:13:15;;;;;;;18.00;10.70;;;;;;;;;;4940351;29;20047;-88
2022/04/10 13:15:41;;;;;;;63.97;24.92;;;;;;;;;;4940703;29;20027;-89
2022/04/10 13:18:09;;;;;;;29.00;14.48;;;;;;;;;;4940411;29;20117;-90
2022/04/10 13:20:36;;;;;;;16.13;10.38;;;;;;;;;;4940166;29;20106;-88
2022/04/10 13:23:01;;;;;;;14.70;10.10;;;;;;;;;;4955927;29;20031;-89
2022/04/10 13:25:27;;;;;;;13.68;9.95;;;;;;;;;;4956411;29;20030;-90
2022/04/10 13:27:53;;;;;;;10.43;5.75;;;;;;;;;;4955697;29;20038;-89
2022/04/10 13:30:18;;;;;;;3.30;2.90;;;;;;;;;;4939976;29;20038;-88
2022/04/10 13:32:44;;;;;;;2.92;2.00;;;;;;;;;;4940380;29;20509;-88
2022/04/10 13:35:09;;;;;;;1.90;1.75;;;;;;;;;;4940606;29;20031;-90
2022/04/10 13:37:35;;;;;;;2.25;1.73;;;;;;;;;;4940143;29;20118;-90
2022/04/10 13:40:01;;;;;;;3.08;2.15;;;;;;;;;;4940107;29;20019;-90
2022/04/10 13:42:30;;;;;;;3.42;2.13;;;;;;;;;;4940183;29;20045;-89
2022/04/10 13:44:56;;;;;;;3.05;2.60;;;;;;;;;;4939852;29;20023;-89
2022/04/10 13:47:24;;;;;;;5.10;2.67;;;;;;;;;;4940008;29;20529;-89
2022/04/10 13:49:50;;;;;;;3.80;2.55;;;;;;;;;;4939580;29;20038;-90
2022/04/10 13:52:15;;;;;;;4.28;2.85;;;;;;;;;;4940092;29;20031;-89
2022/04/10 13:54:52;;;;;;;4.68;3.17;;;;;;;;;;4939756;29;20019;-89
2022/04/10 13:57:18;;;;;;;4.22;2.78;;;;;;;;;;4939849;29;20467;-89
2022/04/10 13:59:44;;;;;;;2.72;2.47;;;;;;;;;;4939954;29;20023;-90
2022/04/10 14:02:09;;;;;;;2.20;2.00;;;;;;;;;;4939785;29;20139;-89
2022/04/10 14:04:38;;;;;;;2.92;2.50;;;;;;;;;;4939448;29;20066;-89
2022/04/10 14:07:03;;;;;;;2.47;2.28;;;;;;;;;;4939578;29;20031;-88
2022/04/10 14:09:29;;;;;;;3.55;2.17;;;;;;;;;;4955671;29;20016;-89
2022/04/10 14:18:18;;;;;;;3.47;2.97;;;;;;;;;;4899189;29;20041;-88
2022/04/10 14:20:45;;;;;;;4.32;2.75;;;;;;;;;;4920479;29;20032;-90
2022/04/10 14:23:24;;;;;;;6.93;3.90;;;;;;;;;;4921144;29;20031;-91
2022/04/10 14:26:28;;;;;;;3.42;2.63;;;;;;;;;;4934602;29;20042;-94
2022/04/10 14:28:54;;;;;;;6.00;3.67;;;;;;;;;;4918969;29;20039;-88
2022/04/10 14:31:19;;;;;;;5.70;3.53;;;;;;;;;;4935061;29;20026;-88
2022/04/10 14:33:45;;;;;;;6.20;4.03;;;;;;;;;;4919529;29;20036;-89
2022/04/10 14:36:10;;;;;;;4.18;2.78;;;;;;;;;;4919313;29;20024;-88
2022/04/10 14:38:36;;;;;;;4.43;3.13;;;;;;;;;;4919187;29;20496;-88
2022/04/10 14:41:04;;;;;;;7.07;3.33;;;;;;;;;;4918817;29;20043;-88
2022/04/10 14:43:30;;;;;;;3.72;2.92;;;;;;;;;;4919048;29;20048;-88
2022/04/10 14:45:55;;;;;;;4.00;2.85;;;;;;;;;;4918426;29;20489;-88
2022/04/10 14:48:21;;;;;;;5.55;3.08;;;;;;;;;;4934907;29;20043;-87
2022/04/10 14:50:46;;;;;;;6.85;3.95;;;;;;;;;;4919589;29;20020;-88
2022/04/10 14:53:12;;;;;;;5.55;2.78;;;;;;;;;;4919400;29;20472;-87
2022/04/10 14:55:37;;;;;;;4.57;3.38;;;;;;;;;;4926835;29;20074;-87
2022/04/10 14:58:06;;;;;;;4.22;2.38;;;;;;;;;;4933801;29;20066;-89
2022/04/10 15:00:50;;;;;;;2.42;1.98;;;;;;;;;;4918215;29;20359;-92
2022/04/10 15:03:26;;;;;;;3.88;2.55;;;;;;;;;;4939332;29;20118;-90